Flight Track Log - Related Links

Times and Time Zones

All times are in EDT time to prevent confusion due to time zone crossing. See the DAL1981 flight status page for this flight to view local times or setup timezone preferences in your user account.

Time Position Orientation Groundspeed Altitude Reporting Facility
EDT Latitude Longitude Course Direction KTS MPH feet Rate Location/Type
Sat 03:54:27 PM 38.6667 -121.5833 78° East 154 177 1,100  Level Northern Cal TRACON
Sat 03:55:27 PM 38.6333 -121.5333 130° Southeast 215 247 1,900 1,450 Climbing Northern Cal TRACON
Sat 03:56:27 PM 38.6167 -121.4500 104° East 269 310 4,000 2,105 Climbing Northern Cal TRACON
Sat 03:57:00 PM 38.4993 -121.2383 80° East  Level FlightAware Approximate
Sat 03:57:21 PM 38.6039 -121.3731 102° East 279 321 5,900  Level Oakland Center
Sat 03:58:00 PM 38.5383 -121.0755 76° East  Level FlightAware Approximate
Sat 03:58:22 PM 38.6164 -121.2758 81° East 283 326 8,100  Level Oakland Center
Sat 03:59:00 PM 38.5681 -120.9090 78° East  Level FlightAware Approximate
Sat 03:59:27 PM 38.6333 -121.1500 80° East 301 346 10,900  Level Northern Cal TRACON
Sat 04:00:25 PM 38.6383 -121.0419 87° East 328 377 11,700 1,261 Climbing Oakland Center
Sat 04:01:26 PM 38.6514 -120.9092 83° East 367 422 13,400 1,770 Climbing Oakland Center
Sat 04:02:27 PM 38.6644 -120.7706 83° East 389 448 15,300 1,805 Climbing Oakland Center
Sat 04:03:29 PM 38.6789 -120.6286 83° East 402 463 17,100 1,902 Climbing Oakland Center
Sat 04:04:30 PM 38.7650 -120.4917 51° Northeast 419 482 19,200 1,659 Climbing Oakland Center
Sat 04:05:32 PM 38.8458 -120.3819 47° Northeast 424 488 20,500 1,268 Climbing Oakland Center
Sat 04:06:33 PM 38.9281 -120.2658 48° Northeast 437 503 21,800 1,230 Climbing Oakland Center
Sat 04:07:34 PM 38.9883 -120.1231 61° Northeast 459 528 23,000 1,122 Climbing Oakland Center
Sat 04:08:36 PM 39.0431 -119.9753 64° Northeast 468 539 24,100 1,024 Climbing Oakland Center
Sat 04:09:37 PM 39.0947 -119.8186 67° East 475 547 25,100 984 Climbing Oakland Center
Sat 04:10:38 PM 39.1322 -119.6517 74° East 483 556 26,100 976 Climbing Oakland Center
Sat 04:11:40 PM 39.1683 -119.4814 75° East 493 567 27,100 976 Climbing Oakland Center
Sat 04:12:41 PM 39.2233 -119.2794 71° East 499 574 28,100 885 Climbing Oakland Center
Sat 04:13:42 PM 39.2819 -119.1133 65° Northeast 508 585 28,900 878 Climbing Oakland Center
Sat 04:14:44 PM 39.3403 -118.9442 66° East 507 583 29,900 927 Climbing Oakland Center
Sat 04:15:45 PM 39.3972 -118.7753 66° East 509 586 30,800 885 Climbing Oakland Center
Sat 04:16:46 PM 39.4567 -118.6056 66° East 516 594 31,700 927 Climbing Oakland Center
Sat 04:17:48 PM 39.5158 -118.4286 67° East 504 580 32,700 829 Climbing Oakland Center
Sat 04:18:49 PM 39.5719 -118.2633 66° East 502 578 33,400 689 Climbing Oakland Center
Sat 04:19:50 PM 39.6272 -118.0964 67° East 503 579 34,100 585 Climbing Oakland Center
Sat 04:20:52 PM 39.6828 -117.9286 67° East 505 581 34,600 439 Climbing Oakland Center
Sat 04:21:53 PM 39.7383 -117.7606 67° East 507 583 35,000 197 Climbing Oakland Center
Sat 04:22:54 PM 39.7911 -117.5986 67° East 505 581 35,000  Level Oakland Center
Sat 04:23:56 PM 39.8519 -117.4128 67° East 503 579 35,000  Level Oakland Center
Sat 04:24:49 PM 39.8947 -117.2778 68° East 503 579 35,000  Level Salt Lake Center
Sat 04:25:51 PM 39.9550 -117.0908 67° East 504 580 35,000  Level Salt Lake Center
Sat 04:26:53 PM 39.9908 -116.9253 74° East 500 575 35,000  Level Salt Lake Center
Sat 04:27:55 PM 40.0331 -116.7311 74° East 501 577 35,000  Level Salt Lake Center
Sat 04:28:57 PM 40.0681 -116.5667 74° East 499 574 35,000  Level Salt Lake Center
Sat 04:29:59 PM 40.1042 -116.3703 76° East 499 574 35,000  Level Salt Lake Center
Sat 04:32:03 PM 40.1739 -116.0072 76° East 501 577 35,000  Level Salt Lake Center
Sat 04:33:05 PM 40.1967 -115.8431 80° East 487 560 35,000 97 Level Salt Lake Center
Sat 04:34:07 PM 40.2058 -115.6494 86° East 480 552 35,200 242 Climbing Salt Lake Center
Sat 04:35:09 PM 40.2117 -115.4853 87° East 474 545 35,500 387 Climbing Salt Lake Center
Sat 04:36:11 PM 40.2253 -115.2917 85° East 477 549 36,000 242 Climbing Salt Lake Center
Sat 04:37:13 PM 40.2333 -115.1242 86° East 482 555 36,000  Level Salt Lake Center
Sat 04:39:17 PM 40.2608 -114.7642 84° East 489 563 36,000  Level Salt Lake Center
Sat 04:40:19 PM 40.3161 -114.6067 65° Northeast 497 572 36,000  Level Salt Lake Center
Sat 04:41:21 PM 40.3897 -114.4117 64° Northeast 498 573 36,000  Level Salt Lake Center
Sat 04:42:23 PM 40.4633 -114.2569 58° Northeast 500 575 36,000  Level Salt Lake Center
Sat 04:43:25 PM 40.5358 -114.1008 59° Northeast 501 577 36,000  Level Salt Lake Center
Sat 04:44:27 PM 40.5964 -113.9372 64° Northeast 500 575 36,000  Level Salt Lake Center
Sat 04:45:29 PM 40.6569 -113.7728 64° Northeast 501 577 36,000  Level Salt Lake Center
Sat 04:46:31 PM 40.7203 -113.6078 63° Northeast 504 580 36,000  Level Salt Lake Center
Sat 04:47:33 PM 40.7950 -113.4117 63° Northeast 501 577 36,000  Level Salt Lake Center
Sat 04:48:35 PM 40.8578 -113.2453 63° Northeast 504 580 36,000  Level Salt Lake Center
Sat 04:49:37 PM 40.9114 -113.0756 67° East 504 580 36,000  Level Salt Lake Center
Sat 04:50:39 PM 40.9642 -112.9031 68° East 506 582 36,000  Level Salt Lake Center
Sat 04:51:41 PM 41.0211 -112.7308 66° East 510 587 36,000  Level Salt Lake Center
Sat 04:52:43 PM 41.0769 -112.5569 67° East 513 590 36,000  Level Salt Lake Center
Sat 04:53:45 PM 41.1369 -112.3450 69° East 511 588 36,000  Level Salt Lake Center
Sat 04:54:47 PM 41.1878 -112.1675 69° East 513 590 36,000  Level Salt Lake Center
Sat 04:55:49 PM 41.2378 -111.9881 70° East 512 589 36,000  Level Salt Lake Center
Sat 04:56:51 PM 41.2875 -111.8081 70° East 511 588 36,000  Level Salt Lake Center
Sat 04:57:53 PM 41.3372 -111.6289 70° East 511 588 36,000  Level Salt Lake Center
Sat 04:58:55 PM 41.3853 -111.4508 70° East 509 586 36,000  Level Salt Lake Center
Sat 04:59:57 PM 41.4331 -111.2728 70° East 509 586 36,000  Level Salt Lake Center
Sat 05:00:59 PM 41.4803 -111.0967 70° East 506 582 36,000  Level Salt Lake Center
Sat 05:02:01 PM 41.5375 -110.8853 70° East 513 590 36,000  Level Salt Lake Center
Sat 05:03:03 PM 41.5819 -110.7156 71° East 507 583 36,000  Level Salt Lake Center
Sat 05:04:05 PM 41.6342 -110.5158 71° East 510 587 36,000  Level Salt Lake Center
Sat 05:05:07 PM 41.6797 -110.3442 70° East 511 588 36,000  Level Salt Lake Center
Sat 05:06:09 PM 41.7242 -110.1717 71° East 511 588 36,000  Level Salt Lake Center
Sat 05:07:11 PM 41.7736 -109.9725 72° East 506 582 36,000  Level Salt Lake Center
Sat 05:08:13 PM 41.8131 -109.8003 73° East 505 581 36,000  Level Salt Lake Center
Sat 05:09:15 PM 41.8156 -109.5889 89° East 506 582 36,000 242 Level Salt Lake Center
Sat 05:10:17 PM 41.8086 -109.4083 93° East 505 581 36,500 484 Climbing Salt Lake Center
Sat 05:11:19 PM 41.8022 -109.1978 92° East 504 580 37,000 242 Climbing Salt Lake Center
Sat 05:12:21 PM 41.7975 -109.0189 92° East 500 575 37,000  Level Salt Lake Center
Sat 05:13:22 PM 41.8022 -108.8397 88° East 500 575 37,000  Level Salt Lake Center
Sat 05:14:24 PM 41.8128 -108.6308 86° East 502 578 37,000  Level Salt Lake Center
Sat 05:15:26 PM 41.8214 -108.4522 86° East 501 577 37,000  Level Salt Lake Center
Sat 05:16:28 PM 41.8344 -108.2464 85° East 496 571 37,000  Level Salt Lake Center
Sat 05:17:30 PM 41.8594 -108.0722 79° East 497 572 37,000 48 Level Salt Lake Center
Sat 05:18:32 PM 41.9128 -107.8767 70° East 503 579 37,100  Climbing Salt Lake Center
Sat 05:19:34 PM 41.9603 -107.7100 69° East 500 575 37,000 -45 Descending Salt Lake Center
Sat 05:20:44 PM 42.0186 -107.5161 68° East 501 577 37,000  Level Denver Center
Sat 05:21:45 PM 42.0653 -107.3150 73° East 504 580 37,000  Level Denver Center
Sat 05:22:47 PM 42.1042 -107.1414 73° East 506 582 37,000  Level Denver Center
Sat 05:23:49 PM 42.1461 -106.9361 75° East 510 587 37,000  Level Denver Center
Sat 05:24:51 PM 42.1892 -106.7617 72° East 513 590 37,000  Level Denver Center
Sat 05:25:52 PM 42.2403 -106.5561 71° East 517 595 37,000  Level Denver Center
Sat 05:26:54 PM 42.2819 -106.3892 71° East 516 594 37,000  Level Denver Center
Sat 05:27:56 PM 42.3394 -106.1878 69° East 513 590 37,000  Level Denver Center
Sat 05:28:58 PM 42.3875 -106.0200 69° East 502 578 37,000  Level Denver Center
Sat 05:30:00 PM 42.4433 -105.8219 69° East 502 578 37,000  Level Denver Center
Sat 05:31:01 PM 42.4922 -105.6550 68° East 499 574 37,000  Level Denver Center
Sat 05:32:03 PM 42.5325 -105.4819 72° East 501 577 37,000  Level Denver Center
Sat 05:33:05 PM 42.5808 -105.2806 72° East 503 579 37,000 -48 Level Denver Center
Sat 05:34:07 PM 42.6219 -105.1083 72° East 500 575 36,900  Descending Denver Center
Sat 05:35:09 PM 42.6711 -104.8989 72° East 515 593 37,000 97 Climbing Denver Center
Sat 05:36:11 PM 42.7147 -104.7147 72° East 526 605 37,100  Climbing Denver Center
Sat 05:37:13 PM 42.7572 -104.5286 73° East 526 605 37,000 -48 Descending Denver Center
Sat 05:38:15 PM 42.8044 -104.3175 73° East 518 596 37,000  Level Denver Center
Sat 05:39:16 PM 42.8381 -104.1703 73° East 510 587 37,000  Level Denver Center
Sat 05:40:18 PM 42.8903 -103.9364 73° East 506 582 37,000  Level Denver Center
Sat 05:41:20 PM 42.9289 -103.7611 73° East 505 581 37,000 48 Level Denver Center
Sat 05:42:22 PM 42.9625 -103.6128 73° East 509 586 37,100 48 Climbing Denver Center
Sat 05:43:24 PM 43.0136 -103.3775 73° East 507 583 37,100 -48 Level Denver Center
Sat 05:44:26 PM 43.0506 -103.2014 74° East 505 581 37,000 -48 Descending Denver Center
Sat 05:45:28 PM 43.0947 -102.9956 74° East 505 581 37,000  Level Denver Center
Sat 05:46:30 PM 43.1331 -102.8186 73° East 507 583 37,000  Level Denver Center
Sat 05:47:31 PM 43.1764 -102.6119 74° East 507 583 37,000  Level Denver Center
Sat 05:48:33 PM 43.2125 -102.4350 74° East 504 580 37,000  Level Denver Center
Sat 05:49:47 PM 43.2561 -102.2286 74° East 505 581 37,000  Level Denver Center
Sat 05:50:49 PM 43.2972 -102.0239 75° East 500 575 37,000  Level Denver Center
Sat 05:52:03 PM 43.3383 -101.8208 74° East 504 580 37,000  Level Denver Center
Sat 05:53:06 PM 43.3828 -101.5994 74° East 504 580 37,000  Level Denver Center
Sat 05:54:07 PM 43.4183 -101.4131 75° East 505 581 37,000  Level Denver Center
Sat 05:55:09 PM 43.4550 -101.2283 75° East 502 578 37,000  Level Denver Center
Sat 05:55:40 PM 43.4781 -101.1192 74° East 503 579 37,000  Level Minneapolis Center
Sat 05:56:42 PM 43.5122 -100.9342 76° East 501 577 37,000  Level Minneapolis Center
Sat 05:57:13 PM 43.5339 -100.8228 75° East 498 573 37,000  Level Denver Center
Sat 05:58:15 PM 43.5681 -100.6397 75° East 495 570 37,000  Level Denver Center
Sat 05:58:46 PM 43.5894 -100.5322 75° East 494 568 37,000  Level Minneapolis Center
Sat 05:59:48 PM 43.6242 -100.3475 75° East 496 571 37,000  Level Minneapolis Center
Sat 06:00:50 PM 43.6581 -100.1642 76° East 498 573 37,000  Level Minneapolis Center
Sat 06:01:52 PM 43.6925 -99.9781 76° East 499 574 37,000  Level Minneapolis Center
Sat 06:02:54 PM 43.7256 -99.7922 76° East 500 575 37,000  Level Minneapolis Center
Sat 06:03:56 PM 43.7608 -99.6036 75° East 505 581 37,000  Level Minneapolis Center
Sat 06:04:58 PM 43.8006 -99.3794 76° East 504 580 37,000  Level Minneapolis Center
Sat 06:05:59 PM 43.8339 -99.1919 76° East 504 580 37,000  Level Minneapolis Center
Sat 06:07:01 PM 43.8667 -99.0058 76° East 501 577 37,000  Level Minneapolis Center
Sat 06:08:03 PM 43.8983 -98.8200 77° East 499 574 37,000  Level Minneapolis Center
Sat 06:09:05 PM 43.9303 -98.6361 76° East 502 578 37,000  Level Minneapolis Center
Sat 06:10:07 PM 43.9611 -98.4478 77° East 501 577 37,000  Level Minneapolis Center
Sat 06:11:09 PM 43.9994 -98.2222 77° East 501 577 37,000  Level Minneapolis Center
Sat 06:12:10 PM 44.0303 -98.0325 77° East 504 580 37,000  Level Minneapolis Center
Sat 06:13:12 PM 44.0617 -97.8439 77° East 503 579 37,000  Level Minneapolis Center
Sat 06:14:14 PM 44.0914 -97.6550 78° East 501 577 37,000  Level Minneapolis Center
Sat 06:15:16 PM 44.1589 -97.5028 58° Northeast 468 539 37,000  Level Minneapolis Center
Sat 06:16:18 PM 44.2656 -97.4264 27° Northeast 428 493 37,000  Level Minneapolis Center
Sat 06:17:20 PM 44.3700 -97.3611 24° Northeast 414 476 37,000 -532 Level Minneapolis Center
Sat 06:18:22 PM 44.4967 -97.2825 24° Northeast 414 476 35,900 -968 Descending Minneapolis Center
Sat 06:19:24 PM 44.5994 -97.1978 30° Northeast 435 501 35,000 -435 Descending Minneapolis Center
Sat 06:20:26 PM 44.6878 -97.0772 44° Northeast 442 509 35,000  Level Minneapolis Center
Sat 06:21:27 PM 44.7744 -96.9547 45° Northeast 442 509 35,000  Level Minneapolis Center
Sat 06:22:29 PM 44.8222 -96.7822 69° East 486 559 35,000  Level Minneapolis Center
Sat 06:23:31 PM 44.7942 -96.5872 101° East 510 587 35,000 -290 Level Minneapolis Center
Sat 06:24:33 PM 44.7519 -96.3933 107° East 516 594 34,400 -871 Descending Minneapolis Center
Sat 06:25:35 PM 44.7017 -96.1597 107° East 518 596 33,200 -1,016 Descending Minneapolis Center
Sat 06:26:37 PM 44.6586 -95.9656 107° East 518 596 32,300 -919 Descending Minneapolis Center
Sat 06:27:39 PM 44.6156 -95.7719 107° East 516 594 31,300 -919 Descending Minneapolis Center
Sat 06:28:41 PM 44.5731 -95.5864 108° East 503 579 30,400 -968 Descending Minneapolis Center
Sat 06:29:43 PM 44.5319 -95.4069 108° East 488 562 29,300 -1,500 Descending Minneapolis Center
Sat 06:30:45 PM 44.4903 -95.2347 109° East 470 541 27,300 -1,935 Descending Minneapolis Center
Sat 06:31:47 PM 44.4794 -95.0742 95° East 422 486 25,300 -1,984 Descending Minneapolis Center
Sat 06:32:49 PM 44.5169 -94.9286 70° East 401 461 23,200 -2,177 Descending Minneapolis Center
Sat 06:33:51 PM 44.5550 -94.7597 72° East 385 443 20,800 -2,177 Descending Minneapolis Center
Sat 06:34:53 PM 44.5858 -94.6258 72° East 369 425 18,700 -1,887 Descending Minneapolis Center
Sat 06:35:55 PM 44.6133 -94.5081 72° East 358 412 16,900 -2,081 Descending Minneapolis Center
Sat 06:36:57 PM 44.6483 -94.3517 72° East 349 402 14,400 -2,226 Descending Minneapolis Center
Sat 06:37:59 PM 44.6781 -94.2250 72° East 342 394 12,300 -1,597 Descending Minneapolis Center
Sat 06:39:01 PM 44.7056 -94.1019 73° East 331 381 11,100 -581 Descending Minneapolis Center
Sat 06:40:03 PM 44.7336 -93.9783 72° East 332 382 11,100 -48 Level Minneapolis Center
Sat 06:41:05 PM 44.7608 -93.8536 73° East 332 382 11,000 -339 Descending Minneapolis Center
Sat 06:42:07 PM 44.7872 -93.7353 73° East 310 357 10,400 -1,258 Descending Minneapolis Center
Sat 06:43:09 PM 44.8156 -93.6056 73° East 288 331 8,400 -1,161 Descending Minneapolis Center
Sat 06:44:11 PM 44.8394 -93.4986 72° East 285 328 8,000 -194 Descending Minneapolis Center
Sat 06:45:13 PM 44.8606 -93.4014 73° East 258 297 8,000  Level Minneapolis Center
Sat 06:46:15 PM 44.8253 -93.3272 124° Southeast 271 312 8,000 -290 Level Minneapolis Center
Sat 06:47:17 PM 44.7536 -93.3294 181° South 266 306 7,400 -968 Descending Minneapolis Center
Sat 06:48:19 PM 44.6822 -93.2869 157° South 257 296 6,000 -1,452 Descending Minneapolis Center
Sat 06:49:21 PM 44.6881 -93.2114 84° East 213 245 4,400 -1,258 Descending Minneapolis Center
Sat 06:50:23 PM 44.7328 -93.2019 North 169 194 3,400 -968 Descending Minneapolis Center
Sat 06:51:25 PM 44.7839 -93.2150 350° North 165 190 2,400 -871 Descending Minneapolis Center
Sat 06:52:27 PM 44.8264 -93.2261 349° North 159 183 1,600 -774 Descending Minneapolis Center

Login

Don't have an account? Register now (free) for customized features, flight alerts, and more!